sensor_id;sensor_type;location;lat;lon;timestamp;P1;durP1;ratioP1;P2;durP2;ratioP2
24325;SDS011;12448;45.532;5.290;2022-08-06T00:02:24;5.43;;;1.70;;
24325;SDS011;12448;45.532;5.290;2022-08-06T00:04:51;4.30;;;1.70;;
24325;SDS011;12448;45.532;5.290;2022-08-06T00:07:18;11.73;;;2.10;;
24325;SDS011;12448;45.532;5.290;2022-08-06T00:09:43;3.90;;;1.60;;
24325;SDS011;12448;45.532;5.290;2022-08-06T00:12:09;6.47;;;2.50;;
24325;SDS011;12448;45.532;5.290;2022-08-06T00:14:35;4.03;;;1.80;;
24325;SDS011;12448;45.532;5.290;2022-08-06T00:17:02;9.38;;;1.90;;
24325;SDS011;12448;45.532;5.290;2022-08-06T00:19:28;4.95;;;1.52;;
24325;SDS011;12448;45.532;5.290;2022-08-06T00:21:53;6.55;;;1.90;;
24325;SDS011;12448;45.532;5.290;2022-08-06T00:24:20;6.45;;;2.00;;
24325;SDS011;12448;45.532;5.290;2022-08-06T00:26:45;5.85;;;1.60;;
24325;SDS011;12448;45.532;5.290;2022-08-06T00:29:11;6.63;;;1.88;;
24325;SDS011;12448;45.532;5.290;2022-08-06T00:31:37;4.75;;;1.85;;
24325;SDS011;12448;45.532;5.290;2022-08-06T00:34:03;6.32;;;2.00;;
24325;SDS011;12448;45.532;5.290;2022-08-06T00:36:32;3.92;;;1.85;;
24325;SDS011;12448;45.532;5.290;2022-08-06T00:38:59;5.50;;;1.70;;
24325;SDS011;12448;45.532;5.290;2022-08-06T00:41:28;4.82;;;1.90;;
24325;SDS011;12448;45.532;5.290;2022-08-06T00:43:54;5.53;;;2.00;;
24325;SDS011;12448;45.532;5.290;2022-08-06T00:46:21;5.05;;;1.80;;
24325;SDS011;12448;45.532;5.290;2022-08-06T00:48:50;11.20;;;2.05;;
24325;SDS011;12448;45.532;5.290;2022-08-06T00:51:16;5.72;;;1.80;;
24325;SDS011;12448;45.532;5.290;2022-08-06T00:53:41;4.47;;;1.80;;
24325;SDS011;12448;45.532;5.290;2022-08-06T00:56:07;4.95;;;1.80;;
24325;SDS011;12448;45.532;5.290;2022-08-06T00:58:33;6.43;;;1.88;;
24325;SDS011;12448;45.532;5.290;2022-08-06T01:00:59;5.78;;;1.98;;
24325;SDS011;12448;45.532;5.290;2022-08-06T01:03:24;3.30;;;1.90;;
24325;SDS011;12448;45.532;5.290;2022-08-06T01:05:50;4.93;;;2.30;;
24325;SDS011;12448;45.532;5.290;2022-08-06T01:08:16;4.85;;;2.00;;
24325;SDS011;12448;45.532;5.290;2022-08-06T01:10:42;4.70;;;1.92;;
24325;SDS011;12448;45.532;5.290;2022-08-06T01:13:08;8.57;;;2.03;;
24325;SDS011;12448;45.532;5.290;2022-08-06T01:15:34;4.90;;;2.63;;
24325;SDS011;12448;45.532;5.290;2022-08-06T01:18:08;7.93;;;2.22;;
24325;SDS011;12448;45.532;5.290;2022-08-06T01:23:50;9.43;;;2.65;;
24325;SDS011;12448;45.532;5.290;2022-08-06T01:26:28;4.45;;;2.10;;
24325;SDS011;12448;45.532;5.290;2022-08-06T01:32:11;5.85;;;2.45;;
24325;SDS011;12448;45.532;5.290;2022-08-06T01:34:49;4.40;;;2.55;;
24325;SDS011;12448;45.532;5.290;2022-08-06T01:37:26;5.35;;;2.28;;
24325;SDS011;12448;45.532;5.290;2022-08-06T01:39:58;5.38;;;2.30;;
24325;SDS011;12448;45.532;5.290;2022-08-06T01:42:27;5.43;;;2.60;;
24325;SDS011;12448;45.532;5.290;2022-08-06T01:45:06;10.55;;;2.60;;
24325;SDS011;12448;45.532;5.290;2022-08-06T01:47:36;9.05;;;2.15;;
24325;SDS011;12448;45.532;5.290;2022-08-06T01:50:04;6.68;;;2.42;;
24325;SDS011;12448;45.532;5.290;2022-08-06T01:52:40;4.47;;;2.65;;
24325;SDS011;12448;45.532;5.290;2022-08-06T01:55:12;4.22;;;2.50;;
24325;SDS011;12448;45.532;5.290;2022-08-06T01:57:41;9.48;;;2.80;;
24325;SDS011;12448;45.532;5.290;2022-08-06T02:00:11;4.80;;;2.70;;
24325;SDS011;12448;45.532;5.290;2022-08-06T02:02:37;5.95;;;2.75;;
24325;SDS011;12448;45.532;5.290;2022-08-06T02:05:07;6.13;;;2.67;;
24325;SDS011;12448;45.532;5.290;2022-08-06T02:07:35;5.40;;;2.63;;
24325;SDS011;12448;45.532;5.290;2022-08-06T02:10:05;6.93;;;2.63;;
24325;SDS011;12448;45.532;5.290;2022-08-06T02:12:33;4.90;;;2.60;;
24325;SDS011;12448;45.532;5.290;2022-08-06T02:15:03;5.20;;;2.38;;
24325;SDS011;12448;45.532;5.290;2022-08-06T02:17:56;5.82;;;2.20;;
24325;SDS011;12448;45.532;5.290;2022-08-06T02:20:25;6.00;;;2.55;;
24325;SDS011;12448;45.532;5.290;2022-08-06T02:22:54;4.78;;;2.80;;
24325;SDS011;12448;45.532;5.290;2022-08-06T02:25:21;4.18;;;2.38;;
24325;SDS011;12448;45.532;5.290;2022-08-06T02:27:49;6.57;;;2.92;;
24325;SDS011;12448;45.532;5.290;2022-08-06T02:30:17;4.70;;;2.70;;
24325;SDS011;12448;45.532;5.290;2022-08-06T02:32:43;5.25;;;2.47;;
24325;SDS011;12448;45.532;5.290;2022-08-06T02:35:10;7.70;;;3.08;;
24325;SDS011;12448;45.532;5.290;2022-08-06T02:37:47;4.90;;;2.47;;
24325;SDS011;12448;45.532;5.290;2022-08-06T02:40:23;5.50;;;2.75;;
24325;SDS011;12448;45.532;5.290;2022-08-06T02:43:35;4.28;;;2.50;;
24325;SDS011;12448;45.532;5.290;2022-08-06T02:45:45;7.55;;;2.65;;
24325;SDS011;12448;45.532;5.290;2022-08-06T02:48:18;5.32;;;2.35;;
24325;SDS011;12448;45.532;5.290;2022-08-06T02:50:53;6.82;;;2.75;;
24325;SDS011;12448;45.532;5.290;2022-08-06T02:53:26;5.53;;;2.70;;
24325;SDS011;12448;45.532;5.290;2022-08-06T02:55:59;6.22;;;2.63;;
24325;SDS011;12448;45.532;5.290;2022-08-06T02:58:41;8.60;;;2.87;;
24325;SDS011;12448;45.532;5.290;2022-08-06T03:01:11;3.67;;;2.35;;
24325;SDS011;12448;45.532;5.290;2022-08-06T03:03:40;7.50;;;2.72;;
24325;SDS011;12448;45.532;5.290;2022-08-06T03:06:09;5.60;;;2.70;;
24325;SDS011;12448;45.532;5.290;2022-08-06T03:08:37;8.32;;;2.90;;
24325;SDS011;12448;45.532;5.290;2022-08-06T03:11:03;4.60;;;2.80;;
24325;SDS011;12448;45.532;5.290;2022-08-06T03:13:30;5.13;;;2.78;;
24325;SDS011;12448;45.532;5.290;2022-08-06T03:15:58;4.63;;;3.05;;
24325;SDS011;12448;45.532;5.290;2022-08-06T03:18:25;6.03;;;2.83;;
24325;SDS011;12448;45.532;5.290;2022-08-06T03:20:52;5.88;;;2.72;;
24325;SDS011;12448;45.532;5.290;2022-08-06T03:23:19;5.55;;;2.42;;
24325;SDS011;12448;45.532;5.290;2022-08-06T03:25:45;5.53;;;2.45;;
24325;SDS011;12448;45.532;5.290;2022-08-06T03:28:13;7.32;;;2.80;;
24325;SDS011;12448;45.532;5.290;2022-08-06T03:30:40;5.38;;;2.92;;
24325;SDS011;12448;45.532;5.290;2022-08-06T03:33:09;5.40;;;2.80;;
24325;SDS011;12448;45.532;5.290;2022-08-06T03:35:37;4.68;;;2.33;;
24325;SDS011;12448;45.532;5.290;2022-08-06T03:38:03;8.07;;;3.33;;
24325;SDS011;12448;45.532;5.290;2022-08-06T03:40:33;5.13;;;2.72;;
24325;SDS011;12448;45.532;5.290;2022-08-06T03:43:00;7.15;;;3.38;;
24325;SDS011;12448;45.532;5.290;2022-08-06T03:45:26;5.65;;;3.28;;
24325;SDS011;12448;45.532;5.290;2022-08-06T03:47:54;6.32;;;2.90;;
24325;SDS011;12448;45.532;5.290;2022-08-06T03:50:22;5.00;;;2.88;;
24325;SDS011;12448;45.532;5.290;2022-08-06T03:53:02;6.45;;;3.10;;
24325;SDS011;12448;45.532;5.290;2022-08-06T03:55:30;6.00;;;3.25;;
24325;SDS011;12448;45.532;5.290;2022-08-06T03:58:00;5.25;;;3.33;;
24325;SDS011;12448;45.532;5.290;2022-08-06T04:00:29;7.75;;;3.28;;
24325;SDS011;12448;45.532;5.290;2022-08-06T04:02:59;4.68;;;3.50;;
24325;SDS011;12448;45.532;5.290;2022-08-06T04:05:28;7.45;;;3.03;;
24325;SDS011;12448;45.532;5.290;2022-08-06T04:07:58;9.32;;;3.22;;
24325;SDS011;12448;45.532;5.290;2022-08-06T04:10:36;5.85;;;3.10;;
24325;SDS011;12448;45.532;5.290;2022-08-06T04:13:05;6.65;;;3.20;;
24325;SDS011;12448;45.532;5.290;2022-08-06T04:15:34;4.65;;;3.30;;
24325;SDS011;12448;45.532;5.290;2022-08-06T04:18:01;7.55;;;3.90;;
24325;SDS011;12448;45.532;5.290;2022-08-06T04:20:27;7.57;;;3.28;;
24325;SDS011;12448;45.532;5.290;2022-08-06T04:22:56;6.22;;;3.20;;
24325;SDS011;12448;45.532;5.290;2022-08-06T04:25:22;9.20;;;3.42;;
24325;SDS011;12448;45.532;5.290;2022-08-06T04:27:49;6.95;;;3.70;;
24325;SDS011;12448;45.532;5.290;2022-08-06T04:30:17;11.73;;;3.85;;
24325;SDS011;12448;45.532;5.290;2022-08-06T04:32:42;6.20;;;4.38;;
24325;SDS011;12448;45.532;5.290;2022-08-06T04:35:10;5.47;;;3.70;;
24325;SDS011;12448;45.532;5.290;2022-08-06T04:37:36;6.32;;;3.67;;
24325;SDS011;12448;45.532;5.290;2022-08-06T04:40:03;6.38;;;3.90;;
24325;SDS011;12448;45.532;5.290;2022-08-06T04:42:30;8.32;;;4.07;;
24325;SDS011;12448;45.532;5.290;2022-08-06T04:44:56;9.30;;;4.00;;
24325;SDS011;12448;45.532;5.290;2022-08-06T04:47:22;7.50;;;4.00;;
24325;SDS011;12448;45.532;5.290;2022-08-06T04:49:49;7.18;;;4.30;;
24325;SDS011;12448;45.532;5.290;2022-08-06T04:52:21;6.80;;;3.85;;
24325;SDS011;12448;45.532;5.290;2022-08-06T04:54:48;10.85;;;3.92;;
24325;SDS011;12448;45.532;5.290;2022-08-06T04:57:13;9.73;;;4.47;;
24325;SDS011;12448;45.532;5.290;2022-08-06T04:59:39;5.35;;;4.00;;
24325;SDS011;12448;45.532;5.290;2022-08-06T05:02:05;10.80;;;4.25;;
24325;SDS011;12448;45.532;5.290;2022-08-06T05:04:31;8.57;;;4.22;;
24325;SDS011;12448;45.532;5.290;2022-08-06T05:09:45;6.72;;;3.85;;
24325;SDS011;12448;45.532;5.290;2022-08-06T05:12:54;9.60;;;3.75;;
24325;SDS011;12448;45.532;5.290;2022-08-06T05:15:15;9.50;;;4.40;;
24325;SDS011;12448;45.532;5.290;2022-08-06T05:17:47;8.67;;;4.23;;
24325;SDS011;12448;45.532;5.290;2022-08-06T05:20:18;5.30;;;3.55;;
24325;SDS011;12448;45.532;5.290;2022-08-06T05:22:47;9.05;;;4.35;;
24325;SDS011;12448;45.532;5.290;2022-08-06T05:25:16;8.35;;;4.25;;
24325;SDS011;12448;45.532;5.290;2022-08-06T05:27:42;8.13;;;3.50;;
24325;SDS011;12448;45.532;5.290;2022-08-06T05:30:08;9.38;;;4.00;;
24325;SDS011;12448;45.532;5.290;2022-08-06T05:32:41;6.68;;;4.05;;
24325;SDS011;12448;45.532;5.290;2022-08-06T05:35:08;7.53;;;3.80;;
24325;SDS011;12448;45.532;5.290;2022-08-06T05:37:34;7.57;;;4.00;;
24325;SDS011;12448;45.532;5.290;2022-08-06T05:39:59;10.70;;;4.07;;
24325;SDS011;12448;45.532;5.290;2022-08-06T05:42:25;9.38;;;3.90;;
24325;SDS011;12448;45.532;5.290;2022-08-06T05:44:51;6.85;;;4.03;;
24325;SDS011;12448;45.532;5.290;2022-08-06T05:47:32;6.53;;;3.40;;
24325;SDS011;12448;45.532;5.290;2022-08-06T05:50:06;6.82;;;3.72;;
24325;SDS011;12448;45.532;5.290;2022-08-06T05:52:42;6.57;;;3.93;;
24325;SDS011;12448;45.532;5.290;2022-08-06T06:00:20;8.95;;;3.70;;
24325;SDS011;12448;45.532;5.290;2022-08-06T06:02:49;6.68;;;3.78;;
24325;SDS011;12448;45.532;5.290;2022-08-06T06:05:16;10.77;;;4.03;;
24325;SDS011;12448;45.532;5.290;2022-08-06T06:07:43;8.85;;;4.30;;
24325;SDS011;12448;45.532;5.290;2022-08-06T06:10:09;7.28;;;3.83;;
24325;SDS011;12448;45.532;5.290;2022-08-06T06:12:37;7.28;;;4.00;;
24325;SDS011;12448;45.532;5.290;2022-08-06T06:15:04;4.75;;;3.35;;
24325;SDS011;12448;45.532;5.290;2022-08-06T06:17:40;5.10;;;3.60;;
24325;SDS011;12448;45.532;5.290;2022-08-06T06:26:01;5.47;;;3.60;;
24325;SDS011;12448;45.532;5.290;2022-08-06T06:28:51;5.55;;;3.55;;
24325;SDS011;12448;45.532;5.290;2022-08-06T06:34:19;7.22;;;3.88;;
24325;SDS011;12448;45.532;5.290;2022-08-06T06:36:57;7.57;;;3.65;;
24325;SDS011;12448;45.532;5.290;2022-08-06T06:39:46;8.32;;;4.03;;
24325;SDS011;12448;45.532;5.290;2022-08-06T06:42:25;6.10;;;3.60;;
24325;SDS011;12448;45.532;5.290;2022-08-06T06:45:04;6.32;;;3.83;;
24325;SDS011;12448;45.532;5.290;2022-08-06T06:47:47;9.07;;;3.65;;
24325;SDS011;12448;45.532;5.290;2022-08-06T06:50:35;9.93;;;3.90;;
24325;SDS011;12448;45.532;5.290;2022-08-06T06:53:10;5.75;;;3.35;;
24325;SDS011;12448;45.532;5.290;2022-08-06T06:55:38;10.73;;;3.63;;
24325;SDS011;12448;45.532;5.290;2022-08-06T06:58:15;7.03;;;3.88;;
24325;SDS011;12448;45.532;5.290;2022-08-06T07:00:58;5.03;;;3.38;;
24325;SDS011;12448;45.532;5.290;2022-08-06T07:03:24;6.25;;;3.85;;
24325;SDS011;12448;45.532;5.290;2022-08-06T07:05:53;6.78;;;4.00;;
24325;SDS011;12448;45.532;5.290;2022-08-06T07:08:21;6.85;;;4.00;;
24325;SDS011;12448;45.532;5.290;2022-08-06T07:10:48;9.63;;;3.80;;
24325;SDS011;12448;45.532;5.290;2022-08-06T07:13:15;6.30;;;3.60;;
24325;SDS011;12448;45.532;5.290;2022-08-06T07:15:42;9.80;;;3.50;;
24325;SDS011;12448;45.532;5.290;2022-08-06T07:18:09;11.50;;;3.60;;
24325;SDS011;12448;45.532;5.290;2022-08-06T07:20:36;6.72;;;3.58;;
24325;SDS011;12448;45.532;5.290;2022-08-06T07:23:03;7.20;;;3.67;;
24325;SDS011;12448;45.532;5.290;2022-08-06T07:25:33;5.97;;;2.95;;
24325;SDS011;12448;45.532;5.290;2022-08-06T07:28:02;7.40;;;3.60;;
24325;SDS011;12448;45.532;5.290;2022-08-06T07:30:29;6.30;;;3.58;;
24325;SDS011;12448;45.532;5.290;2022-08-06T07:32:57;7.55;;;3.72;;
24325;SDS011;12448;45.532;5.290;2022-08-06T07:35:23;5.60;;;3.30;;
24325;SDS011;12448;45.532;5.290;2022-08-06T07:37:54;6.32;;;3.80;;
24325;SDS011;12448;45.532;5.290;2022-08-06T07:43:01;10.38;;;3.60;;
24325;SDS011;12448;45.532;5.290;2022-08-06T07:45:31;7.90;;;4.15;;
24325;SDS011;12448;45.532;5.290;2022-08-06T07:47:58;6.60;;;3.85;;
24325;SDS011;12448;45.532;5.290;2022-08-06T07:50:29;8.45;;;3.85;;
24325;SDS011;12448;45.532;5.290;2022-08-06T07:52:57;7.72;;;3.85;;
24325;SDS011;12448;45.532;5.290;2022-08-06T07:55:26;7.40;;;3.45;;
24325;SDS011;12448;45.532;5.290;2022-08-06T07:57:53;7.32;;;4.15;;
24325;SDS011;12448;45.532;5.290;2022-08-06T08:00:19;7.95;;;3.83;;
24325;SDS011;12448;45.532;5.290;2022-08-06T08:02:47;7.68;;;3.70;;
24325;SDS011;12448;45.532;5.290;2022-08-06T08:05:34;4.65;;;3.58;;
24325;SDS011;12448;45.532;5.290;2022-08-06T08:08:19;8.98;;;3.80;;
24325;SDS011;12448;45.532;5.290;2022-08-06T08:10:45;6.82;;;3.55;;
24325;SDS011;12448;45.532;5.290;2022-08-06T08:13:12;5.55;;;3.78;;
24325;SDS011;12448;45.532;5.290;2022-08-06T08:15:38;9.20;;;3.80;;
24325;SDS011;12448;45.532;5.290;2022-08-06T08:18:05;4.80;;;3.35;;
24325;SDS011;12448;45.532;5.290;2022-08-06T08:20:31;8.82;;;4.00;;
24325;SDS011;12448;45.532;5.290;2022-08-06T08:22:58;5.68;;;3.92;;
24325;SDS011;12448;45.532;5.290;2022-08-06T08:25:24;6.82;;;4.22;;
24325;SDS011;12448;45.532;5.290;2022-08-06T08:27:49;6.63;;;4.10;;
24325;SDS011;12448;45.532;5.290;2022-08-06T08:30:17;5.05;;;3.42;;
24325;SDS011;12448;45.532;5.290;2022-08-06T08:32:43;7.15;;;4.10;;
24325;SDS011;12448;45.532;5.290;2022-08-06T08:35:09;8.82;;;3.80;;
24325;SDS011;12448;45.532;5.290;2022-08-06T08:37:36;6.65;;;4.03;;
24325;SDS011;12448;45.532;5.290;2022-08-06T08:40:02;6.35;;;3.47;;
24325;SDS011;12448;45.532;5.290;2022-08-06T08:42:43;9.00;;;4.05;;
24325;SDS011;12448;45.532;5.290;2022-08-06T08:45:10;8.63;;;3.63;;
24325;SDS011;12448;45.532;5.290;2022-08-06T08:47:38;5.30;;;3.35;;
24325;SDS011;12448;45.532;5.290;2022-08-06T08:50:08;5.65;;;3.60;;
24325;SDS011;12448;45.532;5.290;2022-08-06T08:52:36;6.10;;;3.75;;
24325;SDS011;12448;45.532;5.290;2022-08-06T08:55:04;6.55;;;3.50;;
24325;SDS011;12448;45.532;5.290;2022-08-06T08:57:34;5.13;;;3.58;;
24325;SDS011;12448;45.532;5.290;2022-08-06T09:00:02;5.82;;;3.45;;
24325;SDS011;12448;45.532;5.290;2022-08-06T09:02:29;5.95;;;3.45;;
24325;SDS011;12448;45.532;5.290;2022-08-06T09:04:55;5.35;;;3.35;;
24325;SDS011;12448;45.532;5.290;2022-08-06T09:07:21;5.70;;;3.10;;
24325;SDS011;12448;45.532;5.290;2022-08-06T09:09:47;4.07;;;3.42;;
24325;SDS011;12448;45.532;5.290;2022-08-06T09:12:13;5.93;;;3.88;;
24325;SDS011;12448;45.532;5.290;2022-08-06T09:14:39;9.93;;;3.53;;
24325;SDS011;12448;45.532;5.290;2022-08-06T09:17:08;8.07;;;4.10;;
24325;SDS011;12448;45.532;5.290;2022-08-06T09:19:34;8.55;;;3.40;;
24325;SDS011;12448;45.532;5.290;2022-08-06T09:22:00;6.90;;;3.58;;
24325;SDS011;12448;45.532;5.290;2022-08-06T09:24:26;7.13;;;3.42;;
24325;SDS011;12448;45.532;5.290;2022-08-06T09:27:02;8.73;;;3.75;;
24325;SDS011;12448;45.532;5.290;2022-08-06T09:29:51;7.65;;;4.22;;
24325;SDS011;12448;45.532;5.290;2022-08-06T09:32:35;4.68;;;3.65;;
24325;SDS011;12448;45.532;5.290;2022-08-06T09:35:02;7.22;;;4.00;;
24325;SDS011;12448;45.532;5.290;2022-08-06T09:37:39;6.80;;;3.50;;
24325;SDS011;12448;45.532;5.290;2022-08-06T09:40:12;5.75;;;3.80;;
24325;SDS011;12448;45.532;5.290;2022-08-06T09:42:43;5.40;;;3.38;;
24325;SDS011;12448;45.532;5.290;2022-08-06T09:45:16;8.32;;;3.95;;
24325;SDS011;12448;45.532;5.290;2022-08-06T09:47:44;7.10;;;3.60;;
24325;SDS011;12448;45.532;5.290;2022-08-06T09:50:10;7.45;;;3.50;;
24325;SDS011;12448;45.532;5.290;2022-08-06T09:52:37;5.32;;;4.15;;
24325;SDS011;12448;45.532;5.290;2022-08-06T09:55:03;7.80;;;3.47;;
24325;SDS011;12448;45.532;5.290;2022-08-06T09:57:45;6.72;;;3.50;;
24325;SDS011;12448;45.532;5.290;2022-08-06T10:00:11;6.65;;;3.50;;
24325;SDS011;12448;45.532;5.290;2022-08-06T10:03:00;7.10;;;3.72;;
24325;SDS011;12448;45.532;5.290;2022-08-06T10:05:28;8.73;;;3.65;;
24325;SDS011;12448;45.532;5.290;2022-08-06T10:08:05;4.85;;;3.47;;
24325;SDS011;12448;45.532;5.290;2022-08-06T10:15:41;9.65;;;3.85;;
24325;SDS011;12448;45.532;5.290;2022-08-06T10:18:09;7.20;;;3.78;;
24325;SDS011;12448;45.532;5.290;2022-08-06T10:20:35;4.97;;;2.92;;
24325;SDS011;12448;45.532;5.290;2022-08-06T10:23:01;5.80;;;3.20;;
24325;SDS011;12448;45.532;5.290;2022-08-06T10:25:27;6.03;;;3.53;;
24325;SDS011;12448;45.532;5.290;2022-08-06T10:27:55;8.35;;;3.53;;
24325;SDS011;12448;45.532;5.290;2022-08-06T10:30:21;7.53;;;3.53;;
24325;SDS011;12448;45.532;5.290;2022-08-06T10:32:53;7.03;;;3.40;;
24325;SDS011;12448;45.532;5.290;2022-08-06T10:35:23;9.23;;;4.18;;
24325;SDS011;12448;45.532;5.290;2022-08-06T10:37:51;4.93;;;3.30;;
24325;SDS011;12448;45.532;5.290;2022-08-06T10:40:21;5.30;;;3.50;;
24325;SDS011;12448;45.532;5.290;2022-08-06T10:42:48;5.22;;;3.53;;
24325;SDS011;12448;45.532;5.290;2022-08-06T10:45:16;8.73;;;3.45;;
24325;SDS011;12448;45.532;5.290;2022-08-06T10:47:43;8.18;;;3.70;;
24325;SDS011;12448;45.532;5.290;2022-08-06T10:50:13;5.70;;;3.42;;
24325;SDS011;12448;45.532;5.290;2022-08-06T10:52:40;5.40;;;3.33;;
24325;SDS011;12448;45.532;5.290;2022-08-06T10:55:07;4.30;;;3.40;;
24325;SDS011;12448;45.532;5.290;2022-08-06T10:57:35;6.97;;;3.40;;
24325;SDS011;12448;45.532;5.290;2022-08-06T11:00:04;9.68;;;3.72;;
24325;SDS011;12448;45.532;5.290;2022-08-06T11:05:28;7.15;;;3.90;;
24325;SDS011;12448;45.532;5.290;2022-08-06T11:16:00;6.55;;;3.40;;
24325;SDS011;12448;45.532;5.290;2022-08-06T11:18:26;6.22;;;3.25;;
24325;SDS011;12448;45.532;5.290;2022-08-06T11:20:51;4.55;;;3.50;;
24325;SDS011;12448;45.532;5.290;2022-08-06T11:28:11;5.22;;;3.42;;
24325;SDS011;12448;45.532;5.290;2022-08-06T11:30:44;4.28;;;3.22;;
24325;SDS011;12448;45.532;5.290;2022-08-06T11:33:12;3.90;;;3.08;;
24325;SDS011;12448;45.532;5.290;2022-08-06T11:36:08;5.43;;;3.10;;
24325;SDS011;12448;45.532;5.290;2022-08-06T11:41:30;5.88;;;3.30;;
24325;SDS011;12448;45.532;5.290;2022-08-06T12:02:13;4.95;;;3.45;;
24325;SDS011;12448;45.532;5.290;2022-08-06T12:05:02;3.85;;;3.30;;
24325;SDS011;12448;45.532;5.290;2022-08-06T12:07:29;6.15;;;3.42;;
24325;SDS011;12448;45.532;5.290;2022-08-06T12:14:56;5.00;;;2.90;;
24325;SDS011;12448;45.532;5.290;2022-08-06T12:17:27;3.20;;;2.90;;
24325;SDS011;12448;45.532;5.290;2022-08-06T12:19:55;6.28;;;3.50;;
24325;SDS011;12448;45.532;5.290;2022-08-06T12:22:25;6.60;;;3.13;;
24325;SDS011;12448;45.532;5.290;2022-08-06T12:24:53;5.20;;;3.00;;
24325;SDS011;12448;45.532;5.290;2022-08-06T12:27:22;7.07;;;3.15;;
24325;SDS011;12448;45.532;5.290;2022-08-06T12:29:48;5.05;;;3.17;;
24325;SDS011;12448;45.532;5.290;2022-08-06T12:32:21;4.45;;;3.45;;
24325;SDS011;12448;45.532;5.290;2022-08-06T12:34:48;4.32;;;3.03;;
24325;SDS011;12448;45.532;5.290;2022-08-06T12:37:15;8.32;;;3.85;;
24325;SDS011;12448;45.532;5.290;2022-08-06T12:39:44;6.68;;;2.90;;
24325;SDS011;12448;45.532;5.290;2022-08-06T12:42:30;3.65;;;2.65;;
24325;SDS011;12448;45.532;5.290;2022-08-06T12:44:56;4.00;;;3.05;;
24325;SDS011;12448;45.532;5.290;2022-08-06T12:47:22;7.15;;;3.05;;
24325;SDS011;12448;45.532;5.290;2022-08-06T12:49:50;3.95;;;3.05;;
24325;SDS011;12448;45.532;5.290;2022-08-06T12:52:19;4.30;;;3.00;;
24325;SDS011;12448;45.532;5.290;2022-08-06T12:54:46;3.70;;;3.03;;
24325;SDS011;12448;45.532;5.290;2022-08-06T12:57:24;5.05;;;2.85;;
24325;SDS011;12448;45.532;5.290;2022-08-06T12:59:52;5.97;;;3.33;;
24325;SDS011;12448;45.532;5.290;2022-08-06T13:02:19;4.68;;;2.80;;
24325;SDS011;12448;45.532;5.290;2022-08-06T13:04:51;7.37;;;3.00;;
24325;SDS011;12448;45.532;5.290;2022-08-06T13:07:19;3.97;;;3.22;;
24325;SDS011;12448;45.532;5.290;2022-08-06T13:09:45;4.65;;;3.50;;
24325;SDS011;12448;45.532;5.290;2022-08-06T13:12:15;4.50;;;2.70;;
24325;SDS011;12448;45.532;5.290;2022-08-06T13:17:23;5.32;;;2.83;;
24325;SDS011;12448;45.532;5.290;2022-08-06T13:19:55;6.00;;;3.10;;
24325;SDS011;12448;45.532;5.290;2022-08-06T13:22:23;4.40;;;3.10;;
24325;SDS011;12448;45.532;5.290;2022-08-06T13:25:08;4.15;;;2.80;;
24325;SDS011;12448;45.532;5.290;2022-08-06T13:27:35;6.13;;;2.42;;
24325;SDS011;12448;45.532;5.290;2022-08-06T13:30:05;3.60;;;2.80;;
24325;SDS011;12448;45.532;5.290;2022-08-06T13:32:32;7.15;;;2.85;;
24325;SDS011;12448;45.532;5.290;2022-08-06T13:34:59;6.28;;;2.88;;
24325;SDS011;12448;45.532;5.290;2022-08-06T13:40:34;8.10;;;2.97;;
24325;SDS011;12448;45.532;5.290;2022-08-06T13:43:03;3.67;;;2.70;;
24325;SDS011;12448;45.532;5.290;2022-08-06T13:45:32;8.65;;;3.05;;
24325;SDS011;12448;45.532;5.290;2022-08-06T13:48:04;4.20;;;2.67;;
24325;SDS011;12448;45.532;5.290;2022-08-06T13:50:34;5.50;;;3.10;;
24325;SDS011;12448;45.532;5.290;2022-08-06T13:53:03;4.72;;;2.60;;
24325;SDS011;12448;45.532;5.290;2022-08-06T13:55:29;3.40;;;3.08;;
24325;SDS011;12448;45.532;5.290;2022-08-06T13:57:55;7.65;;;3.30;;
24325;SDS011;12448;45.532;5.290;2022-08-06T14:00:22;3.72;;;2.70;;
24325;SDS011;12448;45.532;5.290;2022-08-06T14:02:48;4.40;;;2.83;;
24325;SDS011;12448;45.532;5.290;2022-08-06T14:05:14;6.00;;;3.00;;
24325;SDS011;12448;45.532;5.290;2022-08-06T14:07:40;4.10;;;2.92;;
24325;SDS011;12448;45.532;5.290;2022-08-06T14:10:06;6.20;;;3.17;;
24325;SDS011;12448;45.532;5.290;2022-08-06T14:12:32;5.25;;;2.88;;
24325;SDS011;12448;45.532;5.290;2022-08-06T14:15:05;4.15;;;2.72;;
24325;SDS011;12448;45.532;5.290;2022-08-06T14:17:43;5.90;;;2.75;;
24325;SDS011;12448;45.532;5.290;2022-08-06T14:20:31;5.30;;;3.10;;
24325;SDS011;12448;45.532;5.290;2022-08-06T14:23:01;6.83;;;2.93;;
24325;SDS011;12448;45.532;5.290;2022-08-06T14:25:27;6.47;;;3.08;;
24325;SDS011;12448;45.532;5.290;2022-08-06T14:27:59;5.85;;;3.15;;
24325;SDS011;12448;45.532;5.290;2022-08-06T14:30:25;3.80;;;2.70;;
24325;SDS011;12448;45.532;5.290;2022-08-06T14:32:52;5.72;;;3.22;;
24325;SDS011;12448;45.532;5.290;2022-08-06T14:35:19;5.22;;;2.80;;
24325;SDS011;12448;45.532;5.290;2022-08-06T14:37:47;4.05;;;2.80;;
24325;SDS011;12448;45.532;5.290;2022-08-06T14:40:14;5.10;;;2.65;;
24325;SDS011;12448;45.532;5.290;2022-08-06T14:43:03;3.80;;;2.78;;
24325;SDS011;12448;45.532;5.290;2022-08-06T14:45:47;5.82;;;3.47;;
24325;SDS011;12448;45.532;5.290;2022-08-06T14:48:13;3.97;;;2.58;;
24325;SDS011;12448;45.532;5.290;2022-08-06T14:50:39;4.78;;;2.88;;
24325;SDS011;12448;45.532;5.290;2022-08-06T14:53:34;4.65;;;2.92;;
24325;SDS011;12448;45.532;5.290;2022-08-06T14:56:00;4.75;;;3.10;;
24325;SDS011;12448;45.532;5.290;2022-08-06T14:58:26;4.05;;;2.70;;
24325;SDS011;12448;45.532;5.290;2022-08-06T15:00:51;7.03;;;3.15;;
24325;SDS011;12448;45.532;5.290;2022-08-06T15:03:17;4.65;;;2.55;;
24325;SDS011;12448;45.532;5.290;2022-08-06T15:05:44;4.63;;;2.53;;
24325;SDS011;12448;45.532;5.290;2022-08-06T15:08:10;5.07;;;2.60;;
24325;SDS011;12448;45.532;5.290;2022-08-06T15:10:39;5.05;;;2.72;;
24325;SDS011;12448;45.532;5.290;2022-08-06T15:13:06;5.93;;;2.90;;
24325;SDS011;12448;45.532;5.290;2022-08-06T15:15:32;5.43;;;2.78;;
24325;SDS011;12448;45.532;5.290;2022-08-06T15:18:01;6.80;;;2.60;;
24325;SDS011;12448;45.532;5.290;2022-08-06T15:20:26;7.80;;;3.00;;
24325;SDS011;12448;45.532;5.290;2022-08-06T15:22:52;3.15;;;2.30;;
24325;SDS011;12448;45.532;5.290;2022-08-06T15:25:18;7.90;;;2.40;;
24325;SDS011;12448;45.532;5.290;2022-08-06T15:27:44;3.20;;;2.63;;
24325;SDS011;12448;45.532;5.290;2022-08-06T15:30:11;3.33;;;2.50;;
24325;SDS011;12448;45.532;5.290;2022-08-06T15:32:37;4.50;;;2.70;;
24325;SDS011;12448;45.532;5.290;2022-08-06T15:35:09;9.52;;;2.80;;
24325;SDS011;12448;45.532;5.290;2022-08-06T15:37:35;7.07;;;2.65;;
24325;SDS011;12448;45.532;5.290;2022-08-06T15:40:00;3.13;;;2.50;;
24325;SDS011;12448;45.532;5.290;2022-08-06T15:42:27;3.20;;;2.38;;
24325;SDS011;12448;45.532;5.290;2022-08-06T15:44:53;5.78;;;2.40;;
24325;SDS011;12448;45.532;5.290;2022-08-06T15:47:19;4.35;;;2.22;;
24325;SDS011;12448;45.532;5.290;2022-08-06T15:49:46;4.63;;;2.78;;
24325;SDS011;12448;45.532;5.290;2022-08-06T15:52:12;4.57;;;2.20;;
24325;SDS011;12448;45.532;5.290;2022-08-06T15:54:37;3.92;;;2.53;;
24325;SDS011;12448;45.532;5.290;2022-08-06T15:57:03;2.72;;;2.35;;
24325;SDS011;12448;45.532;5.290;2022-08-06T15:59:38;3.30;;;2.35;;
24325;SDS011;12448;45.532;5.290;2022-08-06T16:02:07;4.35;;;2.30;;
24325;SDS011;12448;45.532;5.290;2022-08-06T16:04:33;5.40;;;2.38;;
24325;SDS011;12448;45.532;5.290;2022-08-06T16:06:59;4.30;;;2.85;;
24325;SDS011;12448;45.532;5.290;2022-08-06T16:09:26;5.50;;;2.50;;
24325;SDS011;12448;45.532;5.290;2022-08-06T16:11:51;7.07;;;2.55;;
24325;SDS011;12448;45.532;5.290;2022-08-06T16:14:17;2.65;;;2.40;;
24325;SDS011;12448;45.532;5.290;2022-08-06T16:16:42;2.83;;;2.25;;
24325;SDS011;12448;45.532;5.290;2022-08-06T16:19:08;4.20;;;2.30;;
24325;SDS011;12448;45.532;5.290;2022-08-06T16:21:42;7.22;;;2.63;;